createdAt,value
2019-03-18T00:04:02.242Z,0.70
2019-03-18T00:10:04.856Z,1.20
2019-03-18T00:16:07.134Z,1.17
2019-03-18T00:22:09.821Z,0.80
2019-03-18T00:28:12.011Z,1.30
2019-03-18T00:34:14.748Z,0.50
2019-03-18T00:40:23.095Z,0.70
2019-03-18T00:46:25.409Z,0.70
2019-03-18T00:52:27.744Z,0.75
2019-03-18T00:58:30.033Z,0.50
2019-03-18T01:04:33.360Z,0.60
2019-03-18T01:10:35.877Z,1.10
2019-03-18T01:16:38.158Z,1.07
2019-03-18T01:22:40.355Z,0.50
2019-03-18T01:28:42.579Z,0.62
2019-03-18T01:34:44.787Z,1.00
2019-03-18T01:40:46.922Z,0.50
2019-03-18T01:46:49.102Z,0.95
2019-03-18T01:52:51.231Z,0.47
2019-03-18T01:58:53.437Z,2.02
2019-03-18T02:04:55.687Z,0.50
2019-03-18T02:10:57.854Z,0.80
2019-03-18T02:17:00.323Z,1.00
2019-03-18T02:23:02.776Z,0.95
2019-03-18T02:29:04.943Z,0.70
2019-03-18T02:35:07.165Z,0.40
2019-03-18T02:41:09.283Z,0.65
2019-03-18T02:47:11.441Z,0.82
2019-03-18T02:53:13.615Z,1.47
2019-03-18T02:59:15.865Z,0.60
2019-03-18T03:05:18.192Z,1.12
2019-03-18T03:11:20.689Z,1.02
2019-03-18T03:17:22.940Z,1.77
2019-03-18T03:23:25.328Z,1.00
2019-03-18T03:29:27.517Z,0.80
2019-03-18T03:35:29.776Z,1.90
2019-03-18T03:41:31.988Z,1.15
2019-03-18T03:47:34.219Z,0.75
2019-03-18T03:53:36.360Z,1.00
2019-03-18T03:59:38.491Z,1.15
2019-03-18T04:05:40.849Z,1.02
2019-03-18T04:11:43.097Z,1.40
2019-03-18T04:17:45.700Z,1.30
2019-03-18T04:23:48.027Z,0.45
2019-03-18T04:29:51.256Z,1.35
2019-03-18T04:35:53.436Z,0.50
2019-03-18T04:41:55.570Z,0.55
2019-03-18T04:47:57.707Z,0.98
2019-03-18T04:53:59.883Z,0.60
2019-03-18T05:00:02.293Z,0.70
2019-03-18T05:06:04.498Z,1.22
2019-03-18T05:12:06.651Z,3.90
2019-03-18T05:18:08.880Z,0.50
2019-03-18T05:24:11.120Z,0.60
2019-03-18T05:30:13.341Z,2.60
2019-03-18T05:36:15.603Z,2.25
2019-03-18T05:42:17.802Z,1.05
2019-03-18T05:48:20.072Z,0.85
2019-03-18T05:54:22.197Z,2.10
2019-03-18T06:00:24.579Z,6.25
2019-03-18T06:06:26.808Z,2.22
2019-03-18T06:12:29.033Z,1.85
2019-03-18T06:18:31.262Z,1.20
2019-03-18T06:24:33.475Z,1.10
2019-03-18T06:30:35.853Z,0.72
2019-03-18T06:36:38.157Z,3.45
2019-03-18T06:42:42.565Z,3.30
2019-03-18T06:48:44.807Z,3.47
2019-03-18T06:54:47.032Z,2.05
2019-03-18T07:00:49.247Z,1.60
2019-03-18T07:06:51.730Z,3.22
2019-03-18T07:12:54.384Z,2.72
2019-03-18T07:18:56.681Z,1.85
2019-03-18T07:24:59.685Z,1.77
2019-03-18T07:31:02.093Z,3.37
2019-03-18T07:37:04.153Z,6.22
2019-03-18T07:43:06.433Z,2.50
2019-03-18T07:49:09.595Z,2.77
2019-03-18T07:55:11.917Z,3.58
2019-03-18T08:01:14.201Z,5.12
2019-03-18T08:07:16.354Z,7.30
2019-03-18T08:13:18.763Z,3.10
2019-03-18T08:19:20.996Z,4.33
2019-03-18T08:25:23.393Z,4.80
2019-03-18T08:31:25.675Z,3.40
2019-03-18T08:37:28.022Z,3.50
2019-03-18T08:43:30.324Z,2.22
2019-03-18T08:49:32.737Z,4.60
2019-03-18T08:55:35.022Z,6.08
2019-03-18T09:01:37.230Z,3.22
2019-03-18T09:07:39.955Z,3.27
2019-03-18T09:13:42.088Z,3.60
2019-03-18T09:19:44.345Z,3.92
2019-03-18T09:25:46.580Z,2.50
2019-03-18T09:31:48.900Z,4.47
2019-03-18T09:37:53.593Z,3.00
2019-03-18T09:43:55.763Z,5.37
2019-03-18T09:49:58.762Z,4.15
2019-03-18T09:56:00.901Z,2.60
2019-03-18T10:02:03.237Z,2.95
2019-03-18T10:08:05.477Z,3.10
2019-03-18T10:14:07.644Z,2.62
2019-03-18T10:20:09.956Z,3.67
2019-03-18T10:26:12.151Z,5.25
2019-03-18T10:32:15.439Z,3.80
2019-03-18T10:38:17.597Z,4.15
2019-03-18T10:44:20.063Z,2.08
2019-03-18T10:50:22.444Z,4.10
2019-03-18T10:56:24.684Z,4.70
2019-03-18T11:02:26.881Z,4.50
2019-03-18T11:08:29.127Z,3.67
2019-03-18T11:14:31.581Z,2.55
2019-03-18T11:20:33.851Z,5.80
2019-03-18T11:26:36.279Z,4.97
2019-03-18T11:32:38.475Z,4.15
2019-03-18T11:38:40.943Z,2.37
2019-03-18T11:44:43.136Z,1.90
2019-03-18T11:50:45.932Z,1.57
2019-03-18T11:56:48.089Z,2.20
2019-03-18T12:02:50.318Z,2.33
2019-03-18T12:08:52.738Z,2.00
2019-03-18T12:14:55.337Z,2.10
2019-03-18T12:20:57.449Z,2.08
2019-03-18T12:26:59.658Z,2.40
2019-03-18T12:33:01.956Z,1.22
2019-03-18T12:39:05.667Z,2.83
2019-03-18T12:45:09.360Z,1.42
2019-03-18T12:51:11.685Z,2.12
2019-03-18T12:57:13.901Z,2.87
2019-03-18T13:03:16.383Z,1.67
2019-03-18T13:09:19.330Z,3.87
2019-03-18T13:15:21.551Z,1.40
2019-03-18T13:21:23.869Z,3.95
2019-03-18T13:27:26.119Z,1.95
2019-03-18T13:33:28.925Z,2.65
2019-03-18T13:39:31.169Z,2.55
2019-03-18T13:45:33.905Z,1.77
2019-03-18T13:51:36.289Z,2.75
2019-03-18T13:57:38.542Z,1.45
2019-03-18T14:03:40.794Z,1.62
2019-03-18T14:09:43.369Z,2.67
2019-03-18T14:15:45.885Z,1.95
2019-03-18T14:21:48.096Z,3.50
2019-03-18T14:27:50.311Z,1.62
2019-03-18T14:33:52.488Z,3.90
2019-03-18T14:39:55.179Z,1.92
2019-03-18T14:45:57.309Z,3.08
2019-03-18T14:51:59.567Z,1.45
2019-03-18T14:58:01.854Z,2.17
2019-03-18T15:04:04.243Z,2.27
2019-03-18T15:10:07.284Z,5.15
2019-03-18T15:16:09.612Z,1.20
2019-03-18T15:22:11.964Z,1.77
2019-03-18T15:28:14.310Z,0.90
2019-03-18T15:34:16.640Z,1.22
2019-03-18T15:40:18.908Z,1.60
2019-03-18T15:46:21.231Z,1.92
2019-03-18T15:52:24.423Z,2.27
2019-03-18T15:58:27.589Z,2.30
2019-03-18T16:04:29.977Z,4.83
2019-03-18T16:10:32.392Z,1.85
2019-03-18T16:16:34.738Z,1.80
2019-03-18T16:22:37.159Z,6.58
2019-03-18T16:28:39.507Z,4.28
2019-03-18T16:34:41.849Z,4.47
2019-03-18T16:40:44.445Z,2.75
2019-03-18T16:46:46.699Z,4.25
2019-03-18T16:52:49.001Z,3.27
2019-03-18T16:58:53.575Z,4.00
2019-03-18T17:04:56.082Z,1.30
2019-03-18T17:10:58.490Z,2.87
2019-03-18T17:17:00.939Z,3.70
2019-03-18T17:23:03.368Z,4.45
2019-03-18T17:29:05.823Z,6.17
2019-03-18T17:35:08.277Z,4.70
2019-03-18T17:41:10.521Z,6.58
2019-03-18T17:47:12.757Z,5.25
2019-03-18T17:53:15.272Z,4.08
2019-03-18T17:59:17.452Z,3.83
2019-03-18T18:05:20.231Z,4.12
2019-03-18T18:11:22.795Z,3.55
2019-03-18T18:17:26.418Z,3.33
2019-03-18T18:23:29.012Z,3.87
2019-03-18T18:29:31.408Z,2.33
2019-03-18T18:35:33.927Z,4.00
2019-03-18T18:41:36.564Z,6.08
2019-03-18T18:47:39.160Z,4.75
2019-03-18T18:53:41.451Z,7.97
2019-03-18T18:59:43.747Z,5.53
2019-03-18T19:05:46.180Z,5.47
2019-03-18T19:11:50.204Z,8.48
2019-03-18T19:17:55.196Z,6.58
2019-03-18T19:23:57.913Z,6.03
2019-03-18T19:30:00.465Z,26.77
2019-03-18T19:36:02.927Z,104.63
2019-03-18T19:42:07.684Z,41.48
2019-03-18T19:48:10.114Z,24.15
2019-03-18T19:54:13.001Z,10.30
2019-03-18T20:00:17.072Z,8.05
2019-03-18T20:06:19.544Z,5.40
2019-03-18T20:12:21.909Z,7.92
2019-03-18T20:18:24.308Z,7.50
2019-03-18T20:24:26.771Z,6.58
2019-03-18T20:30:29.032Z,9.68
2019-03-18T20:36:31.399Z,7.85
2019-03-18T20:42:35.342Z,8.43
2019-03-18T20:48:37.785Z,9.05
2019-03-18T20:54:41.581Z,8.60
2019-03-18T21:00:43.919Z,9.45
2019-03-18T21:06:46.257Z,7.78
2019-03-18T21:12:48.658Z,11.03
2019-03-18T21:18:53.043Z,9.25
2019-03-18T21:24:55.382Z,12.05
2019-03-18T21:30:57.731Z,9.85
2019-03-18T21:37:00.282Z,10.45
2019-03-18T21:43:03.678Z,11.00
2019-03-18T21:49:06.028Z,11.53
2019-03-18T21:55:08.364Z,11.57
2019-03-18T22:01:10.742Z,14.47
2019-03-18T22:07:12.957Z,12.65
2019-03-18T22:13:15.201Z,10.72
2019-03-18T22:19:18.816Z,13.80
2019-03-18T22:25:21.198Z,13.68
2019-03-18T22:31:23.472Z,12.60
2019-03-18T22:37:25.777Z,11.22
2019-03-18T22:43:28.110Z,19.10
2019-03-18T22:49:30.703Z,15.48
2019-03-18T22:55:33.535Z,11.12
2019-03-18T23:01:36.220Z,14.43
2019-03-18T23:07:38.384Z,12.60
2019-03-18T23:13:40.733Z,10.48
2019-03-18T23:19:43.400Z,10.28
2019-03-18T23:25:45.907Z,12.13
2019-03-18T23:31:48.398Z,9.63
2019-03-18T23:37:50.668Z,10.28
2019-03-18T23:43:53.194Z,11.63
2019-03-18T23:49:55.526Z,10.38
2019-03-18T23:55:57.996Z,9.53
